• Join FlightAware (Why Join?)
  • Login
  • US Flag 
10:37AM EST


 

Airport Tracker/Info


-or-


 

Live Flight TrackerFlight Track Log ✈ UPS1055 ✈ 12-Jun-2013 ✈ KMHT - KPHL

Flight Track Log - Related Links

Times and Time Zones

All times are in EDT time to prevent confusion due to time zone crossing. See the UPS1055 flight status page for this flight to view local times or setup timezone preferences in your user account.

Time Position Orientation Groundspeed Altitude Reporting Facility
EDT Latitude Longitude Course Direction KTS MPH feet Rate Location/Type
10:47PM 33.8490 -84.1640 78° East 419 482 14,400  Level FlightAware
10:48PM 33.8650 -84.0690 79° East 428 493 15,700 1,800 Climbing FlightAware
10:48PM 33.8850 -83.9690 76° East 433 498 17,000 1,800 Climbing FlightAware
10:49PM 33.9220 -83.8830 63° Northeast 435 501 18,200 -21,420 Climbing FlightAware
10:49PM 42.9630 -71.4520 43° Northeast 165 190 2,400 -35,100 Descending FlightAware
10:49PM 42.9820 -71.4660 332° Northwest 189 217 3,000 23,400 Climbing FlightAware
10:50PM 33.9650 -83.8080 231° Southwest 442 509 19,200 3,120 Climbing FlightAware
10:50PM 42.9980 -71.5050 43° Northeast 217 250 4,800 2,100 Descending FlightAware
10:50PM 34.0240 -83.7080 231° Southwest 451 519 20,700 2,400 Climbing FlightAware
10:51PM 43.0140 -71.5680 43° Northeast 271 312 6,500 1,860 Descending FlightAware
10:51PM 34.0770 -83.6160 230° Southwest 461 531 22,100 4,020 Climbing FlightAware
10:51PM 43.0140 -71.6380 43° Northeast 272 313 9,200 1,860 Descending FlightAware
10:52PM 34.1270 -83.5300 230° Southwest 467 537 23,400 2,340 Climbing FlightAware
10:52PM 43.0140 -71.7420 42° Northeast 317 365 11,500 1,740 Descending FlightAware
10:53PM 34.1790 -83.4400 230° Southwest 474 545 24,600 24,300 Climbing FlightAware
10:53PM 34.2075 -83.3904 55° Northeast 473 544 25,300 -8,340 Climbing FlightAware ADS-B
10:54PM 43.0120 -71.9150 42° Northeast 350 403 15,200 1,260 Descending FlightAware
10:54PM 34.2830 -83.2590 229° Southwest 492 566 26,600 2,880 Climbing FlightAware
10:54PM 43.0120 -72.0150 42° Northeast 358 412 17,400 1,020 Descending FlightAware
10:55PM 34.3350 -83.1680 229° Southwest 503 579 27,300 2,880 Climbing FlightAware
10:55PM 43.0110 -72.1060 42° Northeast 362 417 19,300 1,080 Descending FlightAware
10:55PM 34.4000 -83.0550 228° Southwest 511 588 28,200 2,820 Climbing FlightAware
10:56PM 43.0100 -72.2130 41° Northeast 359 413 21,600 1,620 Descending FlightAware
10:56PM 34.4570 -82.9560 228° Southwest 508 585 29,300 2,700 Climbing FlightAware
10:57PM 43.0090 -72.3110 41° Northeast 359 413 23,500 1,680 Descending FlightAware
10:57PM 34.5060 -82.8680 228° Southwest 505 581 30,400 11,820 Climbing FlightAware
10:57PM 34.5499 -82.7918 55° Northeast 504 580 31,200 1,560 Climbing FlightAware ADS-B
10:58PM 34.5912 -82.7185 56° Northeast 499 574 32,100 1,560 Climbing FlightAware ADS-B
10:59PM 34.6632 -82.5900 56° Northeast 493 567 33,500 1,440 Climbing FlightAware ADS-B
10:59PM 34.7019 -82.5205 56° Northeast 492 566 34,200 2,160 Climbing FlightAware ADS-B
11:00PM 34.7400 -82.4523 56° Northeast 480 552 35,700 2,400 Climbing FlightAware ADS-B
11:00PM 34.7771 -82.3857 56° Northeast 466 536 36,700 1,260 Climbing FlightAware ADS-B
11:01PM 34.8141 -82.3188 56° Northeast 470 541 37,000 180 Climbing FlightAware ADS-B
11:01PM 34.8690 -82.2200 56° Northeast 478 550 37,000 -10,320 Level FlightAware
11:02PM 42.9990 -72.9770 39° Northeast 360 414 26,000  Descending FlightAware
11:02PM 34.9152 -82.1361 224° Southwest 476 548 37,000 13,200 Climbing FlightAware ADS-B
11:03PM 34.9546 -82.0644 56° Northeast 480 552 37,000  Level FlightAware ADS-B
11:03PM 35.0027 -81.9765 56° Northeast 482 555 37,000  Level FlightAware ADS-B
11:04PM 35.0448 -81.8988 56° Northeast 484 557 37,000  Level FlightAware ADS-B
11:04PM 35.0832 -81.8266 57° Northeast 485 558 37,000  Level FlightAware ADS-B
11:05PM 35.1214 -81.7551 57° Northeast 485 558 37,000  Level FlightAware ADS-B
11:05PM 35.1595 -81.6840 57° Northeast 487 560 37,000  Level FlightAware ADS-B
11:06PM 35.1980 -81.6123 57° Northeast 488 562 37,000  Level FlightAware ADS-B
11:07PM 35.2500 -81.5160 57° Northeast 490 564 37,000  Level FlightAware
11:07PM 35.2643 -81.4885 58° Northeast 491 565 37,000  Level FlightAware ADS-B
11:07PM 35.3041 -81.4137 57° Northeast 492 566 37,000  Level FlightAware ADS-B
11:08PM 35.3416 -81.3430 57° Northeast 491 565 37,000 -20,040 Level FlightAware ADS-B
11:08PM 42.7570 -73.7850 36° Northeast 390 449 26,000  Descending FlightAware
11:08PM 35.3833 -81.2642 221° Southwest 492 566 37,000  Climbing FlightAware ADS-B
11:09PM 42.7100 -73.8790 36° Northeast 388 447 26,000  Descending FlightAware
11:09PM 35.4483 -81.1409 220° Southwest 490 564 37,000  Climbing FlightAware ADS-B
11:09PM 42.6660 -73.9700 35° Northeast 390 449 26,000  Descending FlightAware
11:10PM 35.5110 -81.0220 220° Southwest 491 565 37,000  Climbing FlightAware
11:10PM 42.6060 -74.0930 35° Northeast 389 448 26,000  Descending FlightAware
11:11PM 35.5780 -80.8930 219° Southwest 491 565 37,000  Climbing FlightAware
11:11PM 42.5510 -74.2000 35° Northeast 397 457 26,000  Descending FlightAware
11:12PM 35.6270 -80.7990 219° Southwest 491 565 37,000  Climbing FlightAware
11:12PM 42.4990 -74.2810 34° Northeast 397 457 26,000  Descending FlightAware
11:13PM 35.6830 -80.6890 218° Southwest 489 563 37,000  Climbing FlightAware
11:13PM 42.4470 -74.3630 34° Northeast 393 452 26,000  Descending FlightAware
11:13PM 35.7470 -80.5650 218° Southwest 487 560 37,000  Climbing FlightAware
11:14PM 42.3530 -74.5140 34° Northeast 392 451 26,000  Descending FlightAware
11:14PM 35.8000 -80.4630 217° Southwest 488 562 37,000  Climbing FlightAware
11:15PM 42.3050 -74.5910 33° Northeast 388 447 26,000  Descending FlightAware
11:15PM 35.8680 -80.3280 217° Southwest 487 560 37,000  Climbing FlightAware
11:15PM 42.2510 -74.6780 33° Northeast 393 452 26,000  Descending FlightAware
11:16PM 35.9320 -80.2020 216° Southwest 488 562 37,000 -660 Climbing FlightAware
11:16PM 42.2070 -74.7480 32° Northeast 388 447 25,600  Descending FlightAware
11:17PM 35.9870 -80.0930 215° Southwest 488 562 37,000 -1,080 Climbing FlightAware
11:17PM 42.1550 -74.8310 32° Northeast 393 452 24,800  Descending FlightAware
11:17PM 36.0240 -80.0210 215° Southwest 488 562 37,000 9,240 Climbing FlightAware
11:18PM 36.0730 -79.9240 58° Northeast 488 562 37,000  Level FlightAware
11:19PM 36.1090 -79.8520 58° Northeast 488 562 37,000 -23,460 Level FlightAware
11:19PM 42.0140 -75.0540 31° Northeast 375 432 20,600  Descending FlightAware
11:20PM 36.1580 -79.7550 213° Southwest 488 562 37,000 12,900 Climbing FlightAware
11:20PM 36.1930 -79.6870 57° Northeast 488 562 37,000 -26,400 Level FlightAware
11:20PM 41.9060 -75.1800 30° Northeast 379 436 19,000  Descending FlightAware
11:21PM 36.2430 -79.5880 213° Southwest 488 562 37,000 13,800 Climbing FlightAware
11:22PM 36.2790 -79.5150 59° Northeast 488 562 37,000 -20,580 Level FlightAware
11:22PM 41.7610 -75.2970 30° Northeast 357 411 17,800  Descending FlightAware
11:22PM 36.3270 -79.4200 212° Southwest 488 562 37,000 -1,860 Climbing FlightAware
11:23PM 41.7020 -75.3450 29° Northeast 351 404 16,500  Descending FlightAware
11:23PM 36.4750 -79.2140 211° Southwest 495 570 37,000 18,300 Climbing FlightAware
11:24PM 36.5290 -79.1170 55° Northeast 492 566 37,000  Level FlightAware
11:24PM 36.5870 -79.0130 55° Northeast 496 571 37,000  Level FlightAware
11:25PM 36.6340 -78.9280 55° Northeast 502 578 37,000  Level FlightAware
11:26PM 36.7000 -78.8100 55° Northeast 504 580 37,000  Level FlightAware
11:26PM 41.4040 -75.5850 27° Northeast 12,100  Descending FlightAware
11:27PM 36.7530 -78.7140 209° Southwest 507 583 37,000  Climbing FlightAware
11:27PM 41.3470 -75.6300 27° Northeast 356 410 12,100  Descending FlightAware
11:27PM 36.8120 -78.6080 208° Southwest 508 585 37,000  Climbing FlightAware
11:28PM 41.2900 -75.6760 26° Northeast 356 410 12,100  Descending FlightAware
11:28PM 36.8600 -78.5190 207° Southwest 506 582 37,000  Climbing FlightAware
11:28PM 41.2020 -75.6870 26° Northeast 389 448 12,100  Descending FlightAware
11:29PM 36.9280 -78.4240 207° Southwest 500 575 37,000  Climbing FlightAware
11:29PM 41.1210 -75.6590 26° Northeast 387 445 12,100  Descending FlightAware
11:29PM 37.0080 -78.3460 208° Southwest 500 575 37,000  Climbing FlightAware
11:30PM 41.0580 -75.6380 27° Northeast 389 448 12,100  Descending FlightAware
11:30PM 37.0780 -78.2790 208° Southwest 497 572 37,000 26,640 Climbing FlightAware
11:31PM 37.1610 -78.2000 37° Northeast 494 568 37,000 -19,080 Level FlightAware
11:31PM 40.9080 -75.5870 28° Northeast 379 436 11,900  Descending FlightAware
11:31PM 37.2420 -78.1230 209° Southwest 488 562 37,000 -1,320 Climbing FlightAware
11:32PM 40.8280 -75.5600 28° Northeast 386 444 11,000  Descending FlightAware
11:32PM 37.3190 -78.0490 210° Southwest 488 562 37,000 -1,200 Climbing FlightAware
11:33PM 40.7530 -75.5340 29° Northeast 368 423 10,100  Descending FlightAware
11:33PM 37.4090 -77.9630 210° Southwest 495 570 37,000  Climbing FlightAware
11:33PM 40.6840 -75.5110 29° Northeast 379 436 10,100  Descending FlightAware
11:34PM 37.4820 -77.8920 211° Southwest 498 573 37,000  Climbing FlightAware
11:34PM 40.6130 -75.4880 30° Northeast 377 434 10,100  Descending FlightAware
11:34PM 37.5590 -77.8180 211° Southwest 500 575 37,000  Climbing FlightAware
11:35PM 40.5440 -75.4640 31° Northeast 327 376 10,100 -1,260 Descending FlightAware
11:35PM 37.6400 -77.7400 212° Southwest 487 560 36,100  Climbing FlightAware
11:36PM 40.4790 -75.4420 31° Northeast 320 368 10,100 -2,220 Descending FlightAware
11:36PM 37.7080 -77.6740 213° Southwest 474 545 34,700 -180 Climbing FlightAware
11:36PM 40.4200 -75.4140 32° Northeast 320 368 10,000 -3,600 Descending FlightAware
11:36PM 37.7830 -77.6000 213° Southwest 458 527 32,100 -1,320 Climbing FlightAware
11:37PM 40.3900 -75.3960 33° Northeast 320 368 9,500 -1,380 Descending FlightAware
11:37PM 37.8490 -77.5370 214° Southwest 438 504 31,200 -1,560 Climbing FlightAware
11:37PM 40.3480 -75.3720 33° Northeast 317 365 8,700 -55,440 Descending FlightAware
11:38PM 40.3160 -75.3530 156° South 313 360 8,100 31,080 Descending FlightAware
11:38PM 37.9210 -77.4710 215° Southwest 453 521 31,000 -1,140 Climbing FlightAware
11:38PM 40.2740 -75.3280 35° Northeast 304 350 7,500  Descending FlightAware
11:39PM 37.9910 -77.4060 216° Southwest 475 547 31,000 -1,440 Climbing FlightAware
11:39PM 40.2020 -75.2870 36° Northeast 295 339 6,200  Descending FlightAware
11:39PM 38.0760 -77.3280 217° Southwest 492 566 31,000 -240 Climbing FlightAware
11:39PM 40.1680 -75.2670 37° Northeast 291 335 6,100 -53,580 Descending FlightAware
11:40PM 40.1510 -75.2500 143° Southeast 291 335 6,000 74,700 Descending FlightAware
11:40PM 38.1340 -77.2740 219° Southwest 494 568 31,000 -1,200 Climbing FlightAware
11:40PM 40.1260 -75.2190 38° Northeast 287 330 5,500  Descending FlightAware
11:41PM 38.2260 -77.1890 219° Southwest 496 571 31,000 -1,380 Climbing FlightAware
11:41PM 40.0690 -75.1500 40° Northeast 281 323 4,200  Descending FlightAware
11:41PM 38.3010 -77.1190 221° Southwest 496 571 31,000 -1,380 Climbing FlightAware
11:42PM 40.0500 -75.1270 41° Northeast 276 318 3,700 -54,000 Descending FlightAware
11:42PM 40.0270 -75.1130 155° Southeast 264 304 3,100 48,120 Descending FlightAware
11:42PM 38.3840 -77.0430 223° Southwest 497 572 31,000 -1,500 Climbing FlightAware
11:42PM 39.9990 -75.1040 42° Northeast 244 281 2,500  Descending FlightAware
11:43PM 38.4600 -76.9820 224° Southwest 493 567 31,000 -600 Climbing FlightAware
11:43PM 39.9580 -75.0940 44° Northeast 197 227 2,100  Descending FlightAware
11:43PM 38.5520 -76.9490 226° Southwest 486 559 31,000  Climbing FlightAware
11:44PM 39.9200 -75.0950 46° Northeast 162 186 2,100 -840 Descending FlightAware
11:44PM 38.6490 -76.8980 228° Southwest 502 578 30,400 -480 Climbing FlightAware
11:44PM 39.8980 -75.1130 47° Northeast 133 153 1,800 -1,560 Descending FlightAware
11:45PM 38.7080 -76.7850 228° Southwest 522 601 29,200 -420 Climbing FlightAware
11:46PM 39.8830 -75.1660 46° Northeast 133 153 1,300 -4,320 Descending FlightAware
11:46PM 38.7370 -76.6340 225° Southwest 528 608 25,700 -840 Climbing FlightAware
11:46PM 39.8790 -75.1840 44° Northeast 133 153 1,000 -2,220 Descending FlightAware
11:47PM 38.7620 -76.5040 223° Southwest 496 571 24,100 17,640 Climbing FlightAware
11:47PM 38.7840 -76.3900 76° East 503 579 22,500 -2,640 Descending FlightAware
11:48PM 38.8060 -76.2760 76° East 489 563 20,600 -2,820 Descending FlightAware
11:49PM 38.8290 -76.1560 76° East 460 529 18,600 -3,300 Descending FlightAware
11:49PM 38.8500 -76.0490 76° East 450 518 15,900 -2,460 Descending FlightAware
11:50PM 38.8720 -75.9390 76° East 437 503 15,200 -720 Descending FlightAware
11:51PM 38.9000 -75.8430 69° East 350 403 14,900 -600 Descending FlightAware
11:51PM 38.9430 -75.7890 44° Northeast 310 357 14,400 -1,260 Descending FlightAware
11:52PM 38.9940 -75.7410 36° Northeast 309 356 13,200 -1,740 Descending FlightAware